METAR AND TAF INFORMATION
METAR FOR LCLK
ADDS - METARS form results

(0222 UTC 19 April 2021)
Data provider http://aviationweather.gov/metar/data/
 
METAR text: LCLK 190200Z 32004KT CAVOK 21/07 Q1012 NOSIG
Conditions at: LCLK (LARNACA/LARNAX A, CY) observed 0200 UTC 19 April 2021
Temperature: 21.0°C (70°F)
Dewpoint: 7.0°C (45°F) [RH = 40%]
Pressure (altimeter): 29.88 inches Hg (1012.0 mb)
Winds: from the NW (320 degrees) at 5 MPH (4 knots; 2.1 m/s)
Visibility: 6 or more miles (10+ km)
Ceiling: ceiling and visibility are OK
Clouds: unknown
Weather: no significant weather observed at this time

METAR text: LCLK 190130Z 32005KT CAVOK 21/07 Q1012 NOSIG
Conditions at: LCLK (LARNACA/LARNAX A, CY) observed 0130 UTC 19 April 2021
Temperature: 21.0°C (70°F)
Dewpoint: 7.0°C (45°F) [RH = 40%]
Pressure (altimeter): 29.88 inches Hg (1012.0 mb)
Winds: from the NW (320 degrees) at 6 MPH (5 knots; 2.6 m/s)
Visibility: 6 or more miles (10+ km)
Ceiling: ceiling and visibility are OK
Clouds: unknown
Weather: no significant weather observed at this time

Forecast for: LCLK (LARNACA/LARNAX A, CY)
Text: TAF LCLK 182330Z 1900/1924 33006KT CAVOK
Forecast period: 0000 to 0700 UTC 19 April 2021
Forecast type: FROM: standard forecast or significant change
Winds: from the NNW (330 degrees) at 7 MPH (6 knots; 3.1 m/s)
Visibility: 6 or more miles (10+ km)
Ceiling: unknown
Clouds: missing
Weather: NSW  (no significant weather)
Text: PROB30 1900/1924 5000 DU
Forecast period: 0000 UTC 19 April 2021 to 0000 UTC 20 April 2021
Forecast type: PROBABLE: 30 percent likelihood of the following during this time
Visibility: 3 miles (5 km)
Ceiling: unknown
Clouds: missing
Weather: DU  (widespread dust)
Text: BECMG 1907/1911 13010KT
Forecast period: 0700 to 1500 UTC 19 April 2021
Forecast type: BECOMING: Conditions expected to become as follows by 1100 UTC 19 April 2021
Winds: from the SE (130 degrees) at 12 MPH (10 knots; 5.1 m/s)
Visibility: 6 or more miles (10+ km)
Ceiling: unknown
Clouds: missing
Weather: NSW  (no significant weather)
Text: BECMG 1915/1919 27007KT
Forecast period: 1500 UTC 19 April 2021 to 0000 UTC 20 April 2021
Forecast type: BECOMING: Conditions expected to become as follows by 1900 UTC 19 April 2021
Winds: from the W (270 degrees) at 8 MPH (7 knots; 3.6 m/s)
Visibility: 6 or more miles (10+ km)
Ceiling: unknown
Clouds: missing
Weather: NSW  (no significant weather)

 AIRPORT MAP

 RUNWAY INFORMATION
Runway 04 Runway length 9776 ft Runway width 148 ft
Runway elevation 11 ft Runway displaced threshold 0 ft Runway heading 45
Runway 22 Runway length 9776 ft Runway width 148 ft
Runway elevation 6 ft Runway displaced threshold 575 ft Runway heading 225

 AIRPORT FREQUENCIES
Type APP Name APP Frequency 121.2 MHZ
Type ATIS Name ATIS Frequency 126.55 MHZ
Type TWR Name TWR Frequency 119.4 MHZ

 AIRPORT NEAR NAVIGATION AIDS
Type VOR-DME Name Larnaca Frequency 112800 KHZ
Type NDB Name Larnaca Frequency 432 KHZ



Powered by Western Air Virtual